sensor_id;sensor_type;location;lat;lon;timestamp;P1;durP1;ratioP1;P2;durP2;ratioP2
64459;SDS011;50828;53.756;21.140;2023-11-18T00:04:04;5.50;;;3.30;;
64459;SDS011;50828;53.756;21.140;2023-11-18T00:09:19;5.90;;;3.70;;
64459;SDS011;50828;53.756;21.140;2023-11-18T00:14:28;7.40;;;3.60;;
64459;SDS011;50828;53.756;21.140;2023-11-18T00:19:35;7.60;;;3.90;;
64459;SDS011;50828;53.756;21.140;2023-11-18T00:24:43;6.20;;;3.40;;
64459;SDS011;50828;53.756;21.140;2023-11-18T00:29:50;5.00;;;2.80;;
64459;SDS011;50828;53.756;21.140;2023-11-18T00:34:57;7.10;;;3.20;;
64459;SDS011;50828;53.756;21.140;2023-11-18T00:40:06;8.60;;;3.90;;
64459;SDS011;50828;53.756;21.140;2023-11-18T00:45:15;5.50;;;3.10;;
64459;SDS011;50828;53.756;21.140;2023-11-18T00:50:23;6.30;;;3.30;;
64459;SDS011;50828;53.756;21.140;2023-11-18T00:55:30;4.50;;;2.90;;
64459;SDS011;50828;53.756;21.140;2023-11-18T01:00:37;6.30;;;3.70;;
64459;SDS011;50828;53.756;21.140;2023-11-18T01:05:45;6.40;;;3.90;;
64459;SDS011;50828;53.756;21.140;2023-11-18T01:10:52;7.10;;;3.70;;
64459;SDS011;50828;53.756;21.140;2023-11-18T01:16:00;5.80;;;3.60;;
64459;SDS011;50828;53.756;21.140;2023-11-18T01:21:08;6.70;;;3.70;;
64459;SDS011;50828;53.756;21.140;2023-11-18T01:26:15;7.60;;;3.80;;
64459;SDS011;50828;53.756;21.140;2023-11-18T01:31:23;6.50;;;3.90;;
64459;SDS011;50828;53.756;21.140;2023-11-18T01:36:45;6.90;;;3.70;;
64459;SDS011;50828;53.756;21.140;2023-11-18T01:41:53;5.70;;;3.50;;
64459;SDS011;50828;53.756;21.140;2023-11-18T01:47:06;6.20;;;3.80;;
64459;SDS011;50828;53.756;21.140;2023-11-18T01:52:16;9.20;;;3.70;;
64459;SDS011;50828;53.756;21.140;2023-11-18T01:57:25;5.90;;;3.50;;
64459;SDS011;50828;53.756;21.140;2023-11-18T02:02:32;5.90;;;3.60;;
64459;SDS011;50828;53.756;21.140;2023-11-18T02:07:41;8.20;;;4.10;;
64459;SDS011;50828;53.756;21.140;2023-11-18T02:12:53;6.10;;;3.60;;
64459;SDS011;50828;53.756;21.140;2023-11-18T02:18:09;5.30;;;3.40;;
64459;SDS011;50828;53.756;21.140;2023-11-18T02:23:18;7.90;;;3.60;;
64459;SDS011;50828;53.756;21.140;2023-11-18T02:28:26;8.20;;;2.80;;
64459;SDS011;50828;53.756;21.140;2023-11-18T02:33:33;6.30;;;3.40;;
64459;SDS011;50828;53.756;21.140;2023-11-18T02:38:47;5.70;;;3.50;;
64459;SDS011;50828;53.756;21.140;2023-11-18T02:43:58;5.20;;;3.10;;
64459;SDS011;50828;53.756;21.140;2023-11-18T02:49:06;6.60;;;3.50;;
64459;SDS011;50828;53.756;21.140;2023-11-18T02:54:14;5.20;;;2.70;;
64459;SDS011;50828;53.756;21.140;2023-11-18T02:59:21;5.10;;;3.30;;
64459;SDS011;50828;53.756;21.140;2023-11-18T03:04:28;5.30;;;3.20;;
64459;SDS011;50828;53.756;21.140;2023-11-18T03:09:35;8.00;;;3.40;;
64459;SDS011;50828;53.756;21.140;2023-11-18T03:14:43;14.30;;;5.30;;
64459;SDS011;50828;53.756;21.140;2023-11-18T03:19:51;7.90;;;3.80;;
64459;SDS011;50828;53.756;21.140;2023-11-18T03:24:59;7.00;;;3.60;;
64459;SDS011;50828;53.756;21.140;2023-11-18T03:30:07;6.30;;;3.90;;
64459;SDS011;50828;53.756;21.140;2023-11-18T03:35:15;4.90;;;2.80;;
64459;SDS011;50828;53.756;21.140;2023-11-18T03:40:23;5.30;;;3.30;;
64459;SDS011;50828;53.756;21.140;2023-11-18T03:45:32;5.10;;;3.20;;
64459;SDS011;50828;53.756;21.140;2023-11-18T03:50:39;4.70;;;2.90;;
64459;SDS011;50828;53.756;21.140;2023-11-18T03:55:47;6.30;;;3.60;;
64459;SDS011;50828;53.756;21.140;2023-11-18T04:06:38;5.40;;;3.00;;
64459;SDS011;50828;53.756;21.140;2023-11-18T04:11:45;4.50;;;3.00;;
64459;SDS011;50828;53.756;21.140;2023-11-18T04:16:53;5.30;;;3.30;;
64459;SDS011;50828;53.756;21.140;2023-11-18T04:22:01;4.40;;;3.00;;
64459;SDS011;50828;53.756;21.140;2023-11-18T04:27:09;6.50;;;3.20;;
64459;SDS011;50828;53.756;21.140;2023-11-18T04:32:16;4.70;;;3.10;;
64459;SDS011;50828;53.756;21.140;2023-11-18T04:37:24;5.50;;;3.40;;
64459;SDS011;50828;53.756;21.140;2023-11-18T04:42:31;5.60;;;3.50;;
64459;SDS011;50828;53.756;21.140;2023-11-18T04:47:38;8.60;;;3.80;;
64459;SDS011;50828;53.756;21.140;2023-11-18T04:52:47;5.80;;;3.60;;
64459;SDS011;50828;53.756;21.140;2023-11-18T04:57:54;4.20;;;2.60;;
64459;SDS011;50828;53.756;21.140;2023-11-18T05:03:02;8.00;;;3.60;;
64459;SDS011;50828;53.756;21.140;2023-11-18T05:08:19;6.20;;;3.10;;
64459;SDS011;50828;53.756;21.140;2023-11-18T05:13:26;5.50;;;3.00;;
64459;SDS011;50828;53.756;21.140;2023-11-18T05:18:34;4.40;;;2.60;;
64459;SDS011;50828;53.756;21.140;2023-11-18T05:23:42;4.60;;;2.80;;
64459;SDS011;50828;53.756;21.140;2023-11-18T05:28:49;4.00;;;2.60;;
64459;SDS011;50828;53.756;21.140;2023-11-18T05:33:58;4.50;;;2.60;;
64459;SDS011;50828;53.756;21.140;2023-11-18T05:39:06;3.20;;;2.00;;
64459;SDS011;50828;53.756;21.140;2023-11-18T05:44:14;5.10;;;2.40;;
64459;SDS011;50828;53.756;21.140;2023-11-18T05:49:23;3.80;;;2.50;;
64459;SDS011;50828;53.756;21.140;2023-11-18T05:54:30;4.00;;;2.40;;
64459;SDS011;50828;53.756;21.140;2023-11-18T05:59:37;4.00;;;2.20;;
64459;SDS011;50828;53.756;21.140;2023-11-18T06:04:45;3.30;;;1.90;;
64459;SDS011;50828;53.756;21.140;2023-11-18T06:09:53;4.10;;;2.30;;
64459;SDS011;50828;53.756;21.140;2023-11-18T06:15:01;4.50;;;2.30;;
64459;SDS011;50828;53.756;21.140;2023-11-18T06:20:13;4.10;;;2.40;;
64459;SDS011;50828;53.756;21.140;2023-11-18T06:25:21;5.20;;;2.70;;
64459;SDS011;50828;53.756;21.140;2023-11-18T06:30:29;8.90;;;6.50;;
64459;SDS011;50828;53.756;21.140;2023-11-18T06:35:37;7.90;;;4.60;;
64459;SDS011;50828;53.756;21.140;2023-11-18T06:40:44;4.90;;;3.10;;
64459;SDS011;50828;53.756;21.140;2023-11-18T06:45:55;3.90;;;2.50;;
64459;SDS011;50828;53.756;21.140;2023-11-18T06:51:03;5.90;;;2.70;;
64459;SDS011;50828;53.756;21.140;2023-11-18T06:56:11;4.10;;;2.20;;
64459;SDS011;50828;53.756;21.140;2023-11-18T07:01:19;5.80;;;3.50;;
64459;SDS011;50828;53.756;21.140;2023-11-18T07:06:27;5.60;;;3.80;;
64459;SDS011;50828;53.756;21.140;2023-11-18T07:11:34;6.80;;;4.60;;
64459;SDS011;50828;53.756;21.140;2023-11-18T07:16:42;8.00;;;4.40;;
64459;SDS011;50828;53.756;21.140;2023-11-18T07:21:50;6.50;;;3.40;;
64459;SDS011;50828;53.756;21.140;2023-11-18T07:26:57;98.90;;;28.40;;
64459;SDS011;50828;53.756;21.140;2023-11-18T07:32:05;82.60;;;28.40;;
64459;SDS011;50828;53.756;21.140;2023-11-18T07:37:13;44.00;;;16.20;;
64459;SDS011;50828;53.756;21.140;2023-11-18T07:42:21;30.10;;;11.10;;
64459;SDS011;50828;53.756;21.140;2023-11-18T07:47:29;20.00;;;8.60;;
64459;SDS011;50828;53.756;21.140;2023-11-18T07:52:38;62.50;;;13.80;;
64459;SDS011;50828;53.756;21.140;2023-11-18T07:57:45;44.50;;;12.00;;
64459;SDS011;50828;53.756;21.140;2023-11-18T08:02:52;26.00;;;10.20;;
64459;SDS011;50828;53.756;21.140;2023-11-18T08:08:00;38.70;;;18.00;;
64459;SDS011;50828;53.756;21.140;2023-11-18T08:13:07;46.30;;;18.30;;
64459;SDS011;50828;53.756;21.140;2023-11-18T08:18:16;34.20;;;14.10;;
64459;SDS011;50828;53.756;21.140;2023-11-18T08:23:25;28.60;;;13.10;;
64459;SDS011;50828;53.756;21.140;2023-11-18T08:28:32;39.50;;;13.50;;
64459;SDS011;50828;53.756;21.140;2023-11-18T08:33:40;28.90;;;13.00;;
64459;SDS011;50828;53.756;21.140;2023-11-18T08:38:50;19.00;;;9.80;;
64459;SDS011;50828;53.756;21.140;2023-11-18T08:43:57;20.20;;;11.50;;
64459;SDS011;50828;53.756;21.140;2023-11-18T08:49:24;17.80;;;10.00;;
64459;SDS011;50828;53.756;21.140;2023-11-18T08:54:37;13.70;;;8.40;;
64459;SDS011;50828;53.756;21.140;2023-11-18T09:00:05;23.00;;;10.00;;
64459;SDS011;50828;53.756;21.140;2023-11-18T09:05:34;85.50;;;28.00;;
64459;SDS011;50828;53.756;21.140;2023-11-18T09:10:43;76.80;;;27.00;;
64459;SDS011;50828;53.756;21.140;2023-11-18T09:15:50;60.80;;;21.30;;
64459;SDS011;50828;53.756;21.140;2023-11-18T09:20:59;65.60;;;21.30;;
64459;SDS011;50828;53.756;21.140;2023-11-18T09:26:09;36.10;;;13.80;;
64459;SDS011;50828;53.756;21.140;2023-11-18T09:31:16;27.60;;;11.50;;
64459;SDS011;50828;53.756;21.140;2023-11-18T09:36:25;20.20;;;8.80;;
64459;SDS011;50828;53.756;21.140;2023-11-18T09:41:33;12.80;;;6.30;;
64459;SDS011;50828;53.756;21.140;2023-11-18T09:46:41;13.10;;;6.10;;
64459;SDS011;50828;53.756;21.140;2023-11-18T09:51:59;20.10;;;8.20;;
64459;SDS011;50828;53.756;21.140;2023-11-18T09:57:13;32.80;;;10.70;;
64459;SDS011;50828;53.756;21.140;2023-11-18T10:02:26;39.50;;;14.00;;
64459;SDS011;50828;53.756;21.140;2023-11-18T10:07:37;27.30;;;10.10;;
64459;SDS011;50828;53.756;21.140;2023-11-18T10:12:46;13.40;;;7.10;;
64459;SDS011;50828;53.756;21.140;2023-11-18T10:17:56;11.00;;;6.40;;
64459;SDS011;50828;53.756;21.140;2023-11-18T10:23:11;8.80;;;5.70;;
64459;SDS011;50828;53.756;21.140;2023-11-18T10:28:24;10.40;;;5.70;;
64459;SDS011;50828;53.756;21.140;2023-11-18T10:33:32;23.10;;;9.80;;
64459;SDS011;50828;53.756;21.140;2023-11-18T10:38:41;46.10;;;15.70;;
64459;SDS011;50828;53.756;21.140;2023-11-18T10:44:04;50.40;;;13.30;;
64459;SDS011;50828;53.756;21.140;2023-11-18T10:49:13;74.00;;;18.30;;
64459;SDS011;50828;53.756;21.140;2023-11-18T10:54:22;68.70;;;17.90;;
64459;SDS011;50828;53.756;21.140;2023-11-18T10:59:30;59.70;;;16.00;;
64459;SDS011;50828;53.756;21.140;2023-11-18T11:04:43;41.90;;;12.10;;
64459;SDS011;50828;53.756;21.140;2023-11-18T11:09:52;59.40;;;15.10;;
64459;SDS011;50828;53.756;21.140;2023-11-18T11:15:01;47.10;;;13.00;;
64459;SDS011;50828;53.756;21.140;2023-11-18T11:20:25;35.20;;;11.60;;
64459;SDS011;50828;53.756;21.140;2023-11-18T11:30:54;22.10;;;9.70;;
64459;SDS011;50828;53.756;21.140;2023-11-18T11:36:11;28.10;;;9.60;;
64459;SDS011;50828;53.756;21.140;2023-11-18T11:41:26;25.00;;;8.50;;
64459;SDS011;50828;53.756;21.140;2023-11-18T11:46:37;23.40;;;9.90;;
64459;SDS011;50828;53.756;21.140;2023-11-18T11:51:46;22.70;;;8.70;;
64459;SDS011;50828;53.756;21.140;2023-11-18T11:56:57;24.10;;;9.30;;
64459;SDS011;50828;53.756;21.140;2023-11-18T12:02:05;19.70;;;7.30;;
64459;SDS011;50828;53.756;21.140;2023-11-18T12:07:14;14.40;;;6.40;;
64459;SDS011;50828;53.756;21.140;2023-11-18T12:12:24;16.10;;;6.70;;
64459;SDS011;50828;53.756;21.140;2023-11-18T12:17:34;18.20;;;7.50;;
64459;SDS011;50828;53.756;21.140;2023-11-18T12:23:21;29.00;;;8.50;;
64459;SDS011;50828;53.756;21.140;2023-11-18T12:28:29;64.80;;;17.20;;
64459;SDS011;50828;53.756;21.140;2023-11-18T12:39:26;24.80;;;8.60;;
64459;SDS011;50828;53.756;21.140;2023-11-18T12:45:02;15.20;;;6.40;;
64459;SDS011;50828;53.756;21.140;2023-11-18T12:50:30;10.70;;;5.20;;
64459;SDS011;50828;53.756;21.140;2023-11-18T12:55:39;9.80;;;4.80;;
64459;SDS011;50828;53.756;21.140;2023-11-18T13:00:47;9.20;;;5.10;;
64459;SDS011;50828;53.756;21.140;2023-11-18T13:05:55;25.10;;;10.00;;
64459;SDS011;50828;53.756;21.140;2023-11-18T13:11:02;38.80;;;12.00;;
64459;SDS011;50828;53.756;21.140;2023-11-18T13:16:16;44.90;;;13.50;;
64459;SDS011;50828;53.756;21.140;2023-11-18T13:21:23;60.00;;;15.80;;
64459;SDS011;50828;53.756;21.140;2023-11-18T13:26:33;45.10;;;13.70;;
64459;SDS011;50828;53.756;21.140;2023-11-18T13:31:41;52.80;;;16.50;;
64459;SDS011;50828;53.756;21.140;2023-11-18T13:36:51;75.40;;;21.70;;
64459;SDS011;50828;53.756;21.140;2023-11-18T13:42:01;158.10;;;47.30;;
64459;SDS011;50828;53.756;21.140;2023-11-18T13:47:25;106.70;;;34.00;;
64459;SDS011;50828;53.756;21.140;2023-11-18T13:52:33;70.10;;;19.10;;
64459;SDS011;50828;53.756;21.140;2023-11-18T13:57:42;47.50;;;13.20;;
64459;SDS011;50828;53.756;21.140;2023-11-18T14:02:49;36.70;;;11.60;;
64459;SDS011;50828;53.756;21.140;2023-11-18T14:07:58;31.90;;;8.70;;
64459;SDS011;50828;53.756;21.140;2023-11-18T14:13:14;29.50;;;8.30;;
64459;SDS011;50828;53.756;21.140;2023-11-18T14:18:23;40.70;;;10.20;;
64459;SDS011;50828;53.756;21.140;2023-11-18T14:23:31;76.70;;;23.70;;
64459;SDS011;50828;53.756;21.140;2023-11-18T14:28:38;181.90;;;55.00;;
64459;SDS011;50828;53.756;21.140;2023-11-18T14:33:47;105.50;;;31.40;;
64459;SDS011;50828;53.756;21.140;2023-11-18T14:38:55;112.00;;;32.40;;
64459;SDS011;50828;53.756;21.140;2023-11-18T14:44:03;72.00;;;22.20;;
64459;SDS011;50828;53.756;21.140;2023-11-18T14:49:13;34.90;;;11.00;;
64459;SDS011;50828;53.756;21.140;2023-11-18T14:54:20;18.60;;;6.60;;
64459;SDS011;50828;53.756;21.140;2023-11-18T14:59:28;14.10;;;4.50;;
64459;SDS011;50828;53.756;21.140;2023-11-18T15:04:35;19.70;;;7.90;;
64459;SDS011;50828;53.756;21.140;2023-11-18T15:09:43;25.20;;;10.10;;
64459;SDS011;50828;53.756;21.140;2023-11-18T15:14:51;80.30;;;22.70;;
64459;SDS011;50828;53.756;21.140;2023-11-18T15:19:59;263.10;;;47.80;;
64459;SDS011;50828;53.756;21.140;2023-11-18T15:25:10;179.60;;;38.10;;
64459;SDS011;50828;53.756;21.140;2023-11-18T15:30:18;112.70;;;29.40;;
64459;SDS011;50828;53.756;21.140;2023-11-18T15:35:28;66.70;;;18.00;;
64459;SDS011;50828;53.756;21.140;2023-11-18T15:40:36;32.00;;;11.10;;
64459;SDS011;50828;53.756;21.140;2023-11-18T15:45:45;30.20;;;10.60;;
64459;SDS011;50828;53.756;21.140;2023-11-18T15:50:52;24.80;;;9.00;;
64459;SDS011;50828;53.756;21.140;2023-11-18T15:56:02;18.20;;;7.90;;
64459;SDS011;50828;53.756;21.140;2023-11-18T16:01:12;19.50;;;7.10;;
64459;SDS011;50828;53.756;21.140;2023-11-18T16:06:19;19.10;;;7.50;;
64459;SDS011;50828;53.756;21.140;2023-11-18T16:11:27;17.30;;;6.80;;
64459;SDS011;50828;53.756;21.140;2023-11-18T16:16:34;12.90;;;6.80;;
64459;SDS011;50828;53.756;21.140;2023-11-18T16:21:42;12.20;;;5.40;;
64459;SDS011;50828;53.756;21.140;2023-11-18T16:26:50;15.40;;;6.10;;
64459;SDS011;50828;53.756;21.140;2023-11-18T16:31:57;24.80;;;11.20;;
64459;SDS011;50828;53.756;21.140;2023-11-18T16:37:05;33.70;;;13.30;;
64459;SDS011;50828;53.756;21.140;2023-11-18T16:42:13;36.90;;;12.90;;
64459;SDS011;50828;53.756;21.140;2023-11-18T16:47:20;31.70;;;13.90;;
64459;SDS011;50828;53.756;21.140;2023-11-18T16:52:27;39.30;;;17.90;;
64459;SDS011;50828;53.756;21.140;2023-11-18T16:57:34;46.10;;;20.30;;
64459;SDS011;50828;53.756;21.140;2023-11-18T17:02:42;41.40;;;19.80;;
64459;SDS011;50828;53.756;21.140;2023-11-18T17:07:51;43.10;;;19.50;;
64459;SDS011;50828;53.756;21.140;2023-11-18T17:12:59;44.30;;;18.70;;
64459;SDS011;50828;53.756;21.140;2023-11-18T17:18:08;32.20;;;15.40;;
64459;SDS011;50828;53.756;21.140;2023-11-18T17:23:15;33.00;;;15.30;;
64459;SDS011;50828;53.756;21.140;2023-11-18T17:28:23;38.10;;;16.00;;
64459;SDS011;50828;53.756;21.140;2023-11-18T17:33:30;44.00;;;18.90;;
64459;SDS011;50828;53.756;21.140;2023-11-18T17:38:38;58.40;;;23.50;;
64459;SDS011;50828;53.756;21.140;2023-11-18T17:43:47;93.10;;;32.20;;
64459;SDS011;50828;53.756;21.140;2023-11-18T17:48:54;92.50;;;29.50;;
64459;SDS011;50828;53.756;21.140;2023-11-18T17:54:01;62.80;;;23.30;;
64459;SDS011;50828;53.756;21.140;2023-11-18T17:59:09;35.20;;;13.40;;
64459;SDS011;50828;53.756;21.140;2023-11-18T18:04:17;31.50;;;13.00;;
64459;SDS011;50828;53.756;21.140;2023-11-18T18:09:24;57.30;;;25.40;;
64459;SDS011;50828;53.756;21.140;2023-11-18T18:14:31;64.90;;;28.80;;
64459;SDS011;50828;53.756;21.140;2023-11-18T18:19:38;70.10;;;30.00;;
64459;SDS011;50828;53.756;21.140;2023-11-18T18:24:45;62.60;;;26.40;;
64459;SDS011;50828;53.756;21.140;2023-11-18T18:29:53;58.20;;;22.50;;
64459;SDS011;50828;53.756;21.140;2023-11-18T18:35:00;38.00;;;15.60;;
64459;SDS011;50828;53.756;21.140;2023-11-18T18:40:11;36.10;;;15.10;;
64459;SDS011;50828;53.756;21.140;2023-11-18T18:45:19;30.60;;;12.30;;
64459;SDS011;50828;53.756;21.140;2023-11-18T18:50:27;26.40;;;10.80;;
64459;SDS011;50828;53.756;21.140;2023-11-18T18:55:38;23.80;;;9.90;;
64459;SDS011;50828;53.756;21.140;2023-11-18T19:00:45;20.80;;;8.40;;
64459;SDS011;50828;53.756;21.140;2023-11-18T19:05:54;17.00;;;7.80;;
64459;SDS011;50828;53.756;21.140;2023-11-18T19:11:01;18.50;;;7.70;;
64459;SDS011;50828;53.756;21.140;2023-11-18T19:16:10;21.60;;;9.20;;
64459;SDS011;50828;53.756;21.140;2023-11-18T19:21:17;23.40;;;10.90;;
64459;SDS011;50828;53.756;21.140;2023-11-18T19:26:24;19.80;;;9.30;;
64459;SDS011;50828;53.756;21.140;2023-11-18T19:31:31;18.40;;;8.10;;
64459;SDS011;50828;53.756;21.140;2023-11-18T19:36:39;27.10;;;10.50;;
64459;SDS011;50828;53.756;21.140;2023-11-18T19:41:46;38.30;;;16.50;;
64459;SDS011;50828;53.756;21.140;2023-11-18T19:46:53;44.30;;;18.90;;
64459;SDS011;50828;53.756;21.140;2023-11-18T19:52:01;41.40;;;15.50;;
64459;SDS011;50828;53.756;21.140;2023-11-18T19:57:10;142.40;;;30.60;;
64459;SDS011;50828;53.756;21.140;2023-11-18T20:02:17;108.40;;;27.70;;
64459;SDS011;50828;53.756;21.140;2023-11-18T20:07:25;87.70;;;23.60;;
64459;SDS011;50828;53.756;21.140;2023-11-18T20:12:32;57.90;;;19.60;;
64459;SDS011;50828;53.756;21.140;2023-11-18T20:17:40;51.20;;;17.50;;
64459;SDS011;50828;53.756;21.140;2023-11-18T20:22:50;40.10;;;17.20;;
64459;SDS011;50828;53.756;21.140;2023-11-18T20:27:58;51.10;;;18.30;;
64459;SDS011;50828;53.756;21.140;2023-11-18T20:33:05;55.60;;;18.10;;
64459;SDS011;50828;53.756;21.140;2023-11-18T20:38:13;47.30;;;16.40;;
64459;SDS011;50828;53.756;21.140;2023-11-18T20:43:21;36.80;;;15.40;;
64459;SDS011;50828;53.756;21.140;2023-11-18T20:48:29;82.50;;;24.60;;
64459;SDS011;50828;53.756;21.140;2023-11-18T20:53:36;92.40;;;36.20;;
64459;SDS011;50828;53.756;21.140;2023-11-18T20:58:43;45.50;;;15.00;;
64459;SDS011;50828;53.756;21.140;2023-11-18T21:03:51;31.10;;;9.50;;
64459;SDS011;50828;53.756;21.140;2023-11-18T21:08:59;27.60;;;8.30;;
64459;SDS011;50828;53.756;21.140;2023-11-18T21:14:06;17.10;;;7.10;;
64459;SDS011;50828;53.756;21.140;2023-11-18T21:19:14;18.50;;;6.80;;
64459;SDS011;50828;53.756;21.140;2023-11-18T21:24:22;16.60;;;6.60;;
64459;SDS011;50828;53.756;21.140;2023-11-18T21:29:29;19.40;;;7.00;;
64459;SDS011;50828;53.756;21.140;2023-11-18T21:34:37;13.70;;;5.90;;
64459;SDS011;50828;53.756;21.140;2023-11-18T21:39:46;17.80;;;7.10;;
64459;SDS011;50828;53.756;21.140;2023-11-18T21:44:53;39.60;;;13.90;;
64459;SDS011;50828;53.756;21.140;2023-11-18T21:50:01;41.40;;;15.00;;
64459;SDS011;50828;53.756;21.140;2023-11-18T21:55:10;32.70;;;13.30;;
64459;SDS011;50828;53.756;21.140;2023-11-18T22:00:18;23.30;;;9.70;;
64459;SDS011;50828;53.756;21.140;2023-11-18T22:05:25;16.80;;;7.40;;
64459;SDS011;50828;53.756;21.140;2023-11-18T22:10:32;15.20;;;6.10;;
64459;SDS011;50828;53.756;21.140;2023-11-18T22:15:39;13.90;;;5.60;;
64459;SDS011;50828;53.756;21.140;2023-11-18T22:20:47;12.50;;;6.90;;
64459;SDS011;50828;53.756;21.140;2023-11-18T22:25:54;11.00;;;5.40;;
64459;SDS011;50828;53.756;21.140;2023-11-18T22:31:02;10.30;;;5.20;;
64459;SDS011;50828;53.756;21.140;2023-11-18T22:36:10;12.30;;;6.10;;
64459;SDS011;50828;53.756;21.140;2023-11-18T22:41:18;11.80;;;6.00;;
64459;SDS011;50828;53.756;21.140;2023-11-18T22:46:26;13.90;;;6.10;;
64459;SDS011;50828;53.756;21.140;2023-11-18T22:51:33;12.20;;;5.60;;
64459;SDS011;50828;53.756;21.140;2023-11-18T22:56:41;12.30;;;5.70;;
64459;SDS011;50828;53.756;21.140;2023-11-18T23:01:48;12.40;;;5.70;;
64459;SDS011;50828;53.756;21.140;2023-11-18T23:06:56;12.70;;;6.70;;
64459;SDS011;50828;53.756;21.140;2023-11-18T23:12:06;13.40;;;6.50;;
64459;SDS011;50828;53.756;21.140;2023-11-18T23:17:14;16.00;;;7.30;;
64459;SDS011;50828;53.756;21.140;2023-11-18T23:22:22;15.90;;;7.70;;
64459;SDS011;50828;53.756;21.140;2023-11-18T23:27:29;13.90;;;6.80;;
64459;SDS011;50828;53.756;21.140;2023-11-18T23:32:36;13.20;;;7.40;;
64459;SDS011;50828;53.756;21.140;2023-11-18T23:37:44;13.90;;;6.80;;
64459;SDS011;50828;53.756;21.140;2023-11-18T23:42:52;13.90;;;7.00;;
64459;SDS011;50828;53.756;21.140;2023-11-18T23:48:00;15.40;;;7.50;;
64459;SDS011;50828;53.756;21.140;2023-11-18T23:53:08;17.60;;;7.50;;
64459;SDS011;50828;53.756;21.140;2023-11-18T23:58:16;15.80;;;6.70;;
